Terminal Aerodrome Forecast
Issued by NWS Binghamton, NY

Home | Current Version | Previous Version | Text Only | Print | Product List | Glossary On
Versions: 1 2 3 4 5 6 7 8 9 10 11 12 13 14 15 16 17 18 19
394
FTUS41 KBGM 100330 AAB
TAFBGM
TAF AMD
KBGM 100330Z 1004/1024 19004KT 1 1/2SM -SN BKN005 OVC012
     FM100700 20004KT P6SM BKN015 OVC040
     FM101400 25010G18KT 2SM -SN OVC012=

USA.gov is the U.S. government's official web portal to all federal, state and local government web resources and services.